Time;durP1;ratioP1;P1;durP2;ratioP2;P2;SDS_P1;SDS_P2;PMS_P1;PMS_P2;Temp;Humidity;BMP_temperature;BMP_pressure;BME280_temperature;BME280_humidity;BME280_pressure;Samples;Min_cycle;Max_cycle;Signal;HPM_P1;HPM_P2
2021/07/17 00:08:57;;;;;;;20.83;14.13;;;;;;;20.06;73.54;98530.45;512862;1091;103109;-43
2021/07/17 00:19:07;;;;;;;20.10;13.50;;;;;;;20.06;73.74;98530.45;512758;1092;103499;-43
2021/07/17 00:29:14;;;;;;;20.10;13.23;;;;;;;19.96;74.14;98535.99;512950;1092;103038;-43
2021/07/17 00:39:22;;;;;;;20.95;13.33;;;;;;;19.98;74.09;98552.59;512813;1092;103118;-42
2021/07/17 00:49:28;;;;;;;19.18;13.80;;;;;;;20.00;74.08;98547.73;512855;1091;103694;-43
2021/07/17 00:59:37;;;;;;;23.30;14.27;;;;;;;19.97;74.65;98551.00;512845;1091;103482;-42
2021/07/17 01:09:45;;;;;;;22.40;12.93;;;;;;;19.83;74.31;98550.14;513082;1092;103626;-43
2021/07/17 01:19:53;;;;;;;24.55;14.30;;;;;;;19.80;74.46;98554.20;512837;1091;103092;-43
2021/07/17 01:30:01;;;;;;;19.18;12.80;;;;;;;19.58;74.70;98543.27;512929;1092;103107;-42
2021/07/17 01:40:18;;;;;;;23.23;13.75;;;;;;;19.58;74.94;98546.75;512995;1091;103536;-42
2021/07/17 01:50:26;;;;;;;23.48;13.90;;;;;;;19.39;74.63;98561.99;512890;1091;103373;-42
2021/07/17 02:00:34;;;;;;;26.40;15.27;;;;;;;19.13;75.12;98574.13;512774;1092;103508;-42
2021/07/17 02:10:42;;;;;;;20.00;13.65;;;;;;;19.22;75.34;98553.66;512826;1091;103098;-41
2021/07/17 02:20:50;;;;;;;17.18;14.80;;;;;;;19.19;75.04;98547.00;513189;1092;103118;-42
2021/07/17 02:30:59;;;;;;;26.87;15.10;;;;;;;19.04;75.47;98530.30;513004;1088;103046;-42
2021/07/17 02:41:05;;;;;;;24.43;13.65;;;;;;;19.03;75.60;98532.18;512921;1089;103105;-40
2021/07/17 02:51:13;;;;;;;20.27;13.83;;;;;;;19.06;75.74;98536.96;513182;1090;103117;-43
2021/07/17 03:01:20;;;;;;;20.53;13.30;;;;;;;19.13;75.64;98542.76;513208;1089;103110;-41
2021/07/17 03:11:29;;;;;;;26.50;14.70;;;;;;;19.17;75.63;98538.45;513004;1089;103409;-44
2021/07/17 03:21:36;;;;;;;31.80;15.33;;;;;;;19.35;76.08;98542.21;513092;1089;103102;-42
2021/07/17 03:31:44;;;;;;;24.25;15.68;;;;;;;19.50;75.75;98541.22;513254;1089;103094;-41
2021/07/17 03:41:53;;;;;;;20.27;14.30;;;;;;;20.19;75.40;98545.81;513164;1088;103085;-42
2021/07/17 03:52:02;;;;;;;27.43;16.73;;;;;;;20.54;74.77;98554.36;513022;1088;103140;-41
2021/07/17 04:02:10;;;;;;;25.50;18.10;;;;;;;21.79;74.52;98537.03;513028;1089;103073;-43
2021/07/17 04:12:18;;;;;;;33.60;17.07;;;;;;;22.46;73.76;98542.38;513093;1088;103121;-41
2021/07/17 04:22:24;;;;;;;;;;;;;;;22.64;72.76;98561.03;513047;1089;103416;-42
2021/07/17 04:32:31;;;;;;;26.30;17.80;;;;;;;24.03;72.31;98555.95;512990;1089;103124;-42
2021/07/17 04:42:38;;;;;;;20.08;15.55;;;;;;;25.11;70.97;98548.51;513051;1089;103420;-42
2021/07/17 04:52:46;;;;;;;20.90;15.07;;;;;;;25.63;70.44;98554.36;513091;1088;103116;-42
2021/07/17 05:02:56;;;;;;;22.17;14.70;;;;;;;26.39;69.50;98556.75;513230;1089;103203;-42
2021/07/17 05:13:12;;;;;;;21.97;15.70;;;;;;;27.35;68.72;98559.08;513221;1088;103489;-43
2021/07/17 05:23:20;;;;;;;18.85;13.95;;;;;;;27.24;66.70;98574.27;513324;1088;103487;-43
2021/07/17 05:33:27;;;;;;;22.23;15.57;;;;;;;27.35;66.40;98561.80;512954;1088;103098;-44
2021/07/17 05:53:42;;;;;;;16.77;12.13;;;;;;;27.57;65.43;98564.02;513190;1088;103060;-43
2021/07/17 06:03:50;;;;;;;18.27;12.20;;;;;;;27.75;64.32;98576.23;513081;1089;103070;-43
2021/07/17 06:13:58;;;;;;;20.70;13.13;;;;;;;25.97;63.52;98559.52;513078;1088;103049;-43
2021/07/17 06:24:07;;;;;;;15.27;11.50;;;;;;;25.88;64.83;98561.52;512986;1089;103098;-43
2021/07/17 06:34:15;;;;;;;18.55;10.50;;;;;;;26.90;64.35;98554.55;513033;1090;103511;-43
2021/07/17 06:44:23;;;;;;;18.33;12.20;;;;;;;27.48;64.25;98572.31;513050;1089;103110;-42
2021/07/17 06:54:31;;;;;;;18.83;12.97;;;;;;;27.73;63.28;98562.20;513081;1088;103099;-44
2021/07/17 07:04:39;;;;;;;16.17;12.30;;;;;;;27.41;62.17;98569.36;513122;1089;103150;-43
2021/07/17 07:14:47;;;;;;;13.93;8.80;;;;;;;28.18;60.68;98568.49;513274;1088;103127;-43
2021/07/17 07:24:55;;;;;;;11.27;8.87;;;;;;;28.35;59.94;98570.91;512965;1088;103092;-44
2021/07/17 07:35:03;;;;;;;14.13;8.73;;;;;;;27.84;58.01;98573.36;513128;1088;103044;-44
2021/07/17 07:45:13;;;;;;;15.57;9.83;;;;;;;27.71;58.16;98571.84;512812;1088;103172;-43
2021/07/17 07:55:21;;;;;;;11.43;8.43;;;;;;;27.81;56.91;98572.13;513010;1088;103435;-44
2021/07/17 08:05:27;;;;;;;13.57;7.53;;;;;;;27.61;57.39;98577.70;513049;1088;103102;-44
2021/07/17 08:15:35;;;;;;;17.78;9.98;;;;;;;27.95;55.22;98585.34;512986;1088;103070;-44
2021/07/17 08:35:50;;;;;;;12.50;8.50;;;;;;;28.04;54.54;98566.95;512967;1089;103194;-45
2021/07/17 08:45:58;;;;;;;15.73;9.87;;;;;;;27.99;56.39;98564.48;512907;1088;103095;-43
2021/07/17 08:56:06;;;;;;;12.50;9.50;;;;;;;28.34;55.16;98558.45;513004;1089;103467;-44
2021/07/17 09:06:15;;;;;;;15.40;10.03;;;;;;;28.14;55.49;98558.28;513004;1088;103457;-42
2021/07/17 09:16:32;;;;;;;18.70;11.53;;;;;;;28.83;55.26;98549.95;512826;1088;103134;-44
2021/07/17 09:26:41;;;;;;;13.37;9.47;;;;;;;28.94;53.62;98565.45;512897;1088;103637;-44
2021/07/17 09:36:51;;;;;;;16.83;8.87;;;;;;;29.00;53.79;98557.80;513107;1088;103127;-45
2021/07/17 09:46:59;;;;;;;13.17;9.20;;;;;;;28.71;52.90;98561.73;513174;1089;103773;-41
2021/07/17 09:57:07;;;;;;;10.80;8.73;;;;;;;28.65;52.71;98561.22;513190;1089;103399;-42
2021/07/17 10:07:15;;;;;;;12.45;9.45;;;;;;;28.91;53.07;98562.64;513331;1088;103143;-43
2021/07/17 10:17:33;;;;;;;14.87;9.03;;;;;;;29.08;51.81;98539.69;512846;1088;103112;-44
2021/07/17 10:27:42;;;;;;;14.03;10.53;;;;;;;29.29;50.21;98542.89;512964;1088;103120;-42
2021/07/17 10:37:50;;;;;;;20.30;9.77;;;;;;;28.84;51.06;98537.94;513014;1089;103102;-45
2021/07/17 10:47:58;;;;;;;12.70;9.77;;;;;;;29.32;51.30;98523.91;513132;1089;103508;-43
2021/07/17 10:58:37;;;;;;;13.97;10.27;;;;;;;29.41;50.34;98522.94;513042;1089;103214;-43
2021/07/17 11:08:45;;;;;;;12.73;10.50;;;;;;;29.71;50.89;98523.98;513000;1090;103141;-43
2021/07/17 11:18:53;;;;;;;14.73;11.10;;;;;;;29.27;50.84;98526.91;512872;1089;103795;-42
2021/07/17 11:29:07;;;;;;;14.13;11.17;;;;;;;29.67;48.88;98511.44;513026;1088;103159;-44
2021/07/17 11:39:17;;;;;;;12.97;11.07;;;;;;;29.26;49.03;98509.00;513062;1088;103396;-44
2021/07/17 11:59:33;;;;;;;17.73;14.00;;;;;;;29.56;48.08;98486.69;513334;1089;103122;-43
2021/07/17 12:09:39;;;;;;;16.27;13.63;;;;;;;30.05;50.25;98467.83;513130;1089;103176;-45
2021/07/17 12:19:58;;;;;;;22.37;14.13;;;;;;;29.73;48.49;98477.29;513212;1089;103140;-43
2021/07/17 12:30:07;;;;;;;17.53;15.63;;;;;;;30.19;49.32;98464.54;513129;1089;103507;-43
2021/07/17 12:40:13;;;;;;;14.80;13.17;;;;;;;30.70;47.05;98451.36;513368;1090;103242;-45
2021/07/17 12:50:30;;;;;;;100.07;32.30;;;;;;;30.02;48.99;98435.77;513178;1089;103310;-43
2021/07/17 13:00:38;;;;;;;26.10;16.73;;;;;;;30.23;48.51;98430.72;513196;1089;104558;-42
2021/07/17 13:10:47;;;;;;;24.87;17.03;;;;;;;30.35;48.57;98413.39;513114;1088;103124;-41
2021/07/17 13:31:16;;;;;;;19.43;17.47;;;;;;;29.48;49.03;98414.14;513172;1088;103099;-44
2021/07/17 13:41:25;;;;;;;22.80;18.33;;;;;;;29.90;49.11;98395.86;513346;1089;103125;-43
2021/07/17 13:51:33;;;;;;;20.03;17.93;;;;;;;29.80;48.08;98390.99;513327;1090;103089;-44
2021/07/17 14:01:39;;;;;;;19.63;17.60;;;;;;;29.82;48.64;98375.09;513277;1088;103527;-42
2021/07/17 14:12:00;;;;;;;18.43;16.87;;;;;;;30.34;48.87;98365.45;513217;1089;103202;-43
2021/07/17 14:22:09;;;;;;;17.50;15.77;;;;;;;30.54;47.60;98360.67;513255;1088;103405;-42
2021/07/17 14:32:16;;;;;;;22.03;16.57;;;;;;;29.98;48.26;98350.42;513371;1088;103393;-44
2021/07/17 14:42:24;;;;;;;21.30;18.13;;;;;;;30.34;48.20;98348.30;513146;1088;103476;-43
2021/07/17 14:52:32;;;;;;;22.80;19.63;;;;;;;30.63;47.98;98333.13;512893;1088;103028;-44
2021/07/17 15:02:41;;;;;;;19.83;17.10;;;;;;;30.62;46.22;98339.75;513242;1088;103428;-44
2021/07/17 15:12:50;;;;;;;21.65;18.50;;;;;;;30.01;47.22;98335.27;513308;1089;103217;-44
2021/07/17 15:22:58;;;;;;;22.70;20.30;;;;;;;30.01;47.23;98333.33;512992;1089;104022;-42
2021/07/17 15:33:05;;;;;;;37.53;19.63;;;;;;;30.20;47.51;98340.67;513011;1089;103620;-42
2021/07/17 15:53:20;;;;;;;22.37;20.20;;;;;;;28.81;49.22;98332.62;513257;1089;103112;-44
2021/07/17 16:03:28;;;;;;;25.97;21.33;;;;;;;28.13;49.92;98341.17;513088;1089;103111;-43
2021/07/17 16:13:37;;;;;;;25.50;22.97;;;;;;;27.67;50.75;98337.31;513045;1088;103093;-44
2021/07/17 16:23:45;;;;;;;30.07;24.13;;;;;;;27.34;51.51;98335.67;513432;1089;103405;-44
2021/07/17 16:33:52;;;;;;;24.40;21.87;;;;;;;26.92;52.91;98314.32;513296;1089;103087;-44
2021/07/17 16:44:01;;;;;;;28.73;25.90;;;;;;;26.83;53.47;98308.26;512864;1089;103518;-43
2021/07/17 16:54:08;;;;;;;26.80;24.13;;;;;;;26.61;54.09;98325.83;513083;1089;103122;-43
2021/07/17 17:04:16;;;;;;;27.60;24.73;;;;;;;26.54;54.70;98341.11;513076;1089;103453;-41
2021/07/17 17:14:24;;;;;;;28.77;25.53;;;;;;;26.38;54.91;98351.06;513170;1088;103399;-43
2021/07/17 17:24:33;;;;;;;28.60;22.40;;;;;;;26.32;55.53;98364.03;513235;1089;103113;-44
2021/07/17 17:34:41;;;;;;;25.50;22.80;;;;;;;26.28;56.09;98371.27;513072;1089;103127;-42
2021/07/17 17:44:49;;;;;;;27.97;23.90;;;;;;;26.16;56.16;98369.33;513274;1089;103470;-44
2021/07/17 17:54:54;;;;;;;;;;;;;;;26.12;56.80;98373.84;513130;1089;103453;-42
2021/07/17 18:05:02;;;;;;;32.47;26.27;;;;;;;25.87;57.87;98370.32;512775;1088;103107;-42
2021/07/17 18:15:13;;;;;;;26.20;23.23;;;;;;;25.64;58.05;98380.73;512866;1089;103182;-43
2021/07/17 18:25:22;;;;;;;28.87;23.67;;;;;;;25.66;58.75;98367.66;512997;1089;103096;-45
2021/07/17 18:35:29;;;;;;;30.77;25.17;;;;;;;25.48;59.40;98368.95;513166;1089;103102;-42
2021/07/17 18:45:37;;;;;;;31.47;27.40;;;;;;;25.11;60.08;98386.18;513020;1088;103167;-43
2021/07/17 18:55:45;;;;;;;27.00;22.63;;;;;;;24.85;60.57;98397.95;512835;1088;103117;-41
2021/07/17 19:05:53;;;;;;;31.77;23.33;;;;;;;24.81;61.21;98386.19;513081;1089;103428;-42
2021/07/17 19:16:01;;;;;;;32.73;25.03;;;;;;;24.52;62.02;98394.33;512969;1089;103105;-43
2021/07/17 19:26:09;;;;;;;40.63;26.70;;;;;;;24.47;62.87;98406.92;512983;1089;103482;-42
2021/07/17 19:36:16;;;;;;;32.37;27.50;;;;;;;24.52;63.08;98391.63;512889;1089;103073;-42
2021/07/17 19:46:24;;;;;;;37.90;30.73;;;;;;;24.52;63.32;98386.22;513175;1089;103475;-43
2021/07/17 20:06:40;;;;;;;29.90;26.80;;;;;;;24.13;63.85;98410.55;512997;1088;103184;-43
2021/07/17 20:16:48;;;;;;;34.00;27.03;;;;;;;23.87;64.09;98424.11;513099;1089;103389;-43
2021/07/17 20:26:56;;;;;;;30.50;27.17;;;;;;;23.98;64.53;98415.68;513057;1088;103156;-43
2021/07/17 20:37:01;;;;;;;31.57;25.97;;;;;;;24.02;64.98;98408.52;512848;1090;103113;-44
2021/07/17 20:47:08;;;;;;;33.97;27.30;;;;;;;23.77;64.94;98397.47;513177;1089;103095;-44
2021/07/17 20:57:16;;;;;;;32.85;29.40;;;;;;;23.61;65.16;98420.67;512690;1088;103524;-44
2021/07/17 21:07:23;;;;;;;30.60;25.60;;;;;;;23.42;65.57;98439.07;513041;1089;103124;-44
2021/07/17 21:17:31;;;;;;;28.47;24.17;;;;;;;23.21;65.86;98420.05;512832;1089;103138;-44
2021/07/17 21:27:39;;;;;;;25.53;21.77;;;;;;;23.17;65.84;98409.08;513050;1088;103146;-44
2021/07/17 21:58:01;;;;;;;27.75;22.80;;;;;;;23.06;66.54;98429.40;512990;1089;103163;-43
2021/07/17 22:08:10;;;;;;;34.07;23.07;;;;;;;22.85;66.56;98434.60;512975;1088;103258;-43
2021/07/17 22:18:19;;;;;;;28.60;20.80;;;;;;;22.75;66.95;98428.70;512809;1088;103117;-44
2021/07/17 22:28:27;;;;;;;25.83;17.73;;;;;;;22.67;66.77;98416.77;512930;1089;103380;-44
2021/07/17 22:38:35;;;;;;;30.95;19.45;;;;;;;22.61;67.41;98426.11;512958;1089;103099;-43
2021/07/17 22:48:44;;;;;;;21.40;18.50;;;;;;;22.43;67.71;98424.47;512861;1089;103466;-43
2021/07/17 22:58:49;;;;;;;;;;;;;;;22.30;68.27;98426.97;513106;1089;103092;-43
2021/07/17 23:08:56;;;;;;;20.03;17.87;;;;;;;22.09;68.58;98425.13;512828;1089;103098;-43
2021/07/17 23:19:03;;;;;;;;;;;;;;;22.05;68.93;98420.38;512844;1089;103445;-43
2021/07/17 23:29:11;;;;;;;23.83;17.90;;;;;;;22.04;69.08;98413.40;512924;1089;104099;-42
2021/07/17 23:39:18;;;;;;;27.63;19.48;;;;;;;21.95;69.41;98390.19;513002;1089;103150;-43
2021/07/17 23:49:26;;;;;;;27.00;16.80;;;;;;;21.84;69.66;98392.36;512967;1089;103511;-43
2021/07/17 23:59:38;;;;;;;26.80;17.93;;;;;;;21.71;69.65;98394.02;513019;1089;103156;-42
